createdAt,value
2023-04-29T00:02:45.419Z,63.90
2023-04-29T00:07:46.833Z,63.84
2023-04-29T00:12:48.703Z,64.07
2023-04-29T00:17:50.831Z,63.84
2023-04-29T00:22:52.336Z,64.55
2023-04-29T00:27:53.734Z,64.61
2023-04-29T00:32:55.353Z,64.39
2023-04-29T00:37:56.807Z,64.45
2023-04-29T00:42:58.167Z,64.48
2023-04-29T00:47:59.558Z,64.78
2023-04-29T00:53:01.318Z,64.74
2023-04-29T00:58:04.099Z,64.64
2023-04-29T01:03:05.883Z,64.91
2023-04-29T01:08:37.851Z,64.89
2023-04-29T01:13:54.390Z,64.36
2023-04-29T01:19:01.910Z,64.43
2023-04-29T01:24:03.317Z,64.41
2023-04-29T01:29:32.460Z,64.36
2023-04-29T01:34:49.014Z,64.31
2023-04-29T01:40:01.623Z,64.12
2023-04-29T01:45:06.930Z,64.45
2023-04-29T01:50:08.578Z,65.00
2023-04-29T01:55:10.990Z,65.12
2023-04-29T02:00:13.333Z,65.12
2023-04-29T02:05:14.765Z,65.12
2023-04-29T02:10:16.240Z,65.29
2023-04-29T02:15:17.829Z,65.66
2023-04-29T02:20:19.227Z,65.89
2023-04-29T02:25:20.923Z,66.67
2023-04-29T02:30:22.355Z,66.60
2023-04-29T02:35:23.709Z,66.56
2023-04-29T02:40:26.371Z,66.57
2023-04-29T02:45:27.699Z,66.73
2023-04-29T02:50:29.069Z,66.56
2023-04-29T02:55:30.437Z,66.38
2023-04-29T03:00:31.817Z,66.12
2023-04-29T03:05:33.614Z,66.09
2023-04-29T03:10:34.972Z,65.90
2023-04-29T03:15:36.873Z,65.71
2023-04-29T03:20:38.364Z,65.71
2023-04-29T03:25:40.560Z,65.83
2023-04-29T03:30:42.206Z,65.50
2023-04-29T03:35:43.843Z,65.60
2023-04-29T03:40:45.546Z,65.83
2023-04-29T03:45:47.018Z,65.54
2023-04-29T03:50:48.521Z,65.33
2023-04-29T03:55:49.874Z,65.11
2023-04-29T04:00:51.288Z,64.63
2023-04-29T04:05:52.607Z,64.69
2023-04-29T04:10:54.141Z,64.39
2023-04-29T04:15:55.489Z,64.30
2023-04-29T04:20:56.841Z,64.19
2023-04-29T04:25:58.194Z,63.90
2023-04-29T04:30:59.592Z,63.71
2023-04-29T04:36:00.989Z,63.29
2023-04-29T04:41:02.554Z,63.10
2023-04-29T04:46:11.839Z,63.10
2023-04-29T04:51:13.661Z,63.00
2023-04-29T04:56:15.050Z,63.02
2023-04-29T05:01:16.501Z,62.73
2023-04-29T05:06:17.998Z,62.95
2023-04-29T05:11:20.878Z,62.59
2023-04-29T05:16:22.268Z,62.32
2023-04-29T05:21:23.703Z,62.12
2023-04-29T05:26:25.019Z,61.18
2023-04-29T05:31:28.001Z,60.99
2023-04-29T05:36:29.757Z,60.72
2023-04-29T05:41:31.118Z,60.19
2023-04-29T05:46:32.554Z,60.42
2023-04-29T05:51:33.922Z,60.00
2023-04-29T05:56:35.519Z,59.96
2023-04-29T06:01:36.878Z,59.97
2023-04-29T06:06:38.585Z,59.41
2023-04-29T06:11:39.926Z,59.13
2023-04-29T06:16:41.329Z,58.91
2023-04-29T06:21:42.727Z,59.25
2023-04-29T06:26:44.171Z,58.85
2023-04-29T06:31:45.643Z,58.84
2023-04-29T06:36:47.122Z,58.64
2023-04-29T06:41:48.433Z,58.44
2023-04-29T06:46:49.807Z,58.48
2023-04-29T06:51:51.148Z,58.49
2023-04-29T06:56:52.578Z,58.57
2023-04-29T07:01:54.104Z,58.30
2023-04-29T07:06:55.907Z,58.26
2023-04-29T07:11:57.243Z,58.50
2023-04-29T07:16:58.772Z,58.27
2023-04-29T07:22:00.192Z,58.47
2023-04-29T07:27:01.536Z,58.53
2023-04-29T07:32:02.918Z,58.39
2023-04-29T07:37:04.248Z,58.54
2023-04-29T07:42:05.582Z,58.49
2023-04-29T07:47:06.963Z,58.63
2023-04-29T07:52:09.954Z,58.71
2023-04-29T07:57:11.380Z,58.80
2023-04-29T08:02:13.742Z,58.57
2023-04-29T08:07:15.093Z,59.00
2023-04-29T08:12:16.516Z,59.12
2023-04-29T08:17:17.850Z,58.95
2023-04-29T08:22:19.237Z,59.36
2023-04-29T08:27:21.782Z,59.19
2023-04-29T08:32:23.251Z,59.75
2023-04-29T08:37:24.607Z,59.68
2023-04-29T08:42:36.863Z,60.04
2023-04-29T08:47:38.836Z,60.18
2023-04-29T08:52:40.669Z,60.21
2023-04-29T08:57:43.197Z,59.65
2023-04-29T09:02:50.811Z,59.62
2023-04-29T09:07:52.861Z,59.41
2023-04-29T09:13:00.578Z,59.36
2023-04-29T09:18:02.032Z,58.72
2023-04-29T09:23:04.597Z,58.43
2023-04-29T09:28:16.682Z,58.69
2023-04-29T09:33:18.026Z,58.88
2023-04-29T09:38:19.588Z,58.80
2023-04-29T09:43:21.444Z,58.77
2023-04-29T09:48:32.073Z,59.01
2023-04-29T09:53:37.971Z,59.06
2023-04-29T09:58:40.131Z,58.82
2023-04-29T10:03:42.804Z,59.17
2023-04-29T10:08:46.140Z,58.85
2023-04-29T10:13:50.256Z,58.62
2023-04-29T10:18:56.326Z,58.21
2023-04-29T10:23:59.334Z,56.87
2023-04-29T10:29:02.102Z,56.34
2023-04-29T10:34:03.457Z,55.48
2023-04-29T10:39:09.537Z,54.90
2023-04-29T10:44:11.381Z,54.45
2023-04-29T10:49:12.813Z,54.00
2023-04-29T10:54:20.270Z,53.53
2023-04-29T10:59:33.568Z,53.93
2023-04-29T11:04:34.990Z,53.55
2023-04-29T11:09:38.596Z,53.44
2023-04-29T11:14:49.615Z,53.27
2023-04-29T11:19:52.217Z,53.46
2023-04-29T11:25:01.927Z,53.31
2023-04-29T11:30:06.458Z,53.16
2023-04-29T11:35:11.941Z,53.15
2023-04-29T11:40:14.385Z,52.95
2023-04-29T11:45:18.913Z,52.41
2023-04-29T11:50:20.923Z,52.72
2023-04-29T11:55:22.414Z,52.67
2023-04-29T12:00:24.619Z,52.70
2023-04-29T12:05:26.629Z,52.51
2023-04-29T12:10:28.188Z,52.17
2023-04-29T12:15:30.978Z,52.29
2023-04-29T12:20:32.596Z,51.88
2023-04-29T12:25:34.085Z,51.98
2023-04-29T12:30:36.252Z,51.87
2023-04-29T12:35:37.594Z,51.40
2023-04-29T12:40:38.927Z,51.13
2023-04-29T12:45:40.754Z,51.18
2023-04-29T12:50:42.239Z,50.67
2023-04-29T12:55:44.020Z,50.66
2023-04-29T13:00:45.507Z,50.44
2023-04-29T13:05:48.629Z,50.40
2023-04-29T13:10:50.093Z,50.76
2023-04-29T13:15:51.577Z,51.20
2023-04-29T13:20:53.736Z,51.75
2023-04-29T13:25:55.440Z,52.43
2023-04-29T13:30:56.984Z,52.45
2023-04-29T13:35:58.402Z,52.57
2023-04-29T13:40:59.948Z,52.48
2023-04-29T13:46:01.365Z,52.49
2023-04-29T14:01:54.626Z,52.27
2023-04-29T14:06:34.099Z,52.71
2023-04-29T14:11:36.789Z,53.04
2023-04-29T14:16:38.467Z,52.90
2023-04-29T14:21:40.031Z,52.87
2023-04-29T14:26:41.869Z,52.94
2023-04-29T14:31:43.381Z,53.22
2023-04-29T14:36:46.723Z,53.53
2023-04-29T14:41:48.663Z,53.04
2023-04-29T14:46:50.147Z,53.23
2023-04-29T14:51:51.630Z,52.60
2023-04-29T14:56:53.070Z,53.24
2023-04-29T15:01:54.443Z,53.81
2023-04-29T15:06:57.713Z,53.71
2023-04-29T15:11:59.006Z,54.15
2023-04-29T15:17:00.355Z,54.49
2023-04-29T15:22:01.659Z,54.52
2023-04-29T15:27:03.334Z,54.54
2023-04-29T15:32:04.909Z,54.59
2023-04-29T15:37:06.391Z,54.52
2023-04-29T15:42:09.376Z,54.67
2023-04-29T15:47:10.755Z,54.28
2023-04-29T15:52:12.062Z,54.76
2023-04-29T15:57:14.690Z,54.79
2023-04-29T16:02:16.281Z,54.59
2023-04-29T16:07:18.209Z,54.21
2023-04-29T16:12:20.639Z,54.21
2023-04-29T16:17:22.037Z,53.67
2023-04-29T16:22:23.558Z,53.86
2023-04-29T16:27:24.942Z,53.74
2023-04-29T16:32:28.469Z,53.96
2023-04-29T16:37:29.971Z,54.10
2023-04-29T16:42:31.481Z,54.04
2023-04-29T16:47:32.969Z,54.24
2023-04-29T16:52:35.165Z,54.07
2023-04-29T16:57:36.576Z,53.96
2023-04-29T17:02:40.226Z,54.18
2023-04-29T17:07:42.593Z,54.41
2023-04-29T17:12:44.117Z,54.15
2023-04-29T17:17:46.531Z,54.17
2023-04-29T17:22:48.004Z,54.16
2023-04-29T17:27:49.745Z,54.59
2023-04-29T17:32:51.275Z,54.40
2023-04-29T17:37:52.607Z,54.24
2023-04-29T17:42:54.036Z,54.12
2023-04-29T17:47:55.624Z,54.04
2023-04-29T17:52:56.946Z,53.85
2023-04-29T17:57:58.452Z,53.79
2023-04-29T18:02:59.893Z,54.13
2023-04-29T18:08:01.337Z,53.89
2023-04-29T18:13:03.337Z,54.22
2023-04-29T18:18:04.810Z,54.57
2023-04-29T18:23:06.511Z,54.49
2023-04-29T18:33:15.763Z,54.64
2023-04-29T18:38:17.466Z,54.66
2023-04-29T18:43:24.202Z,54.76
2023-04-29T18:48:25.681Z,54.59
2023-04-29T18:53:27.080Z,54.81
2023-04-29T18:58:28.496Z,55.02
2023-04-29T19:03:30.405Z,55.06
2023-04-29T19:08:31.745Z,55.21
2023-04-29T19:13:33.118Z,55.17
2023-04-29T19:18:34.495Z,55.72
2023-04-29T19:23:35.857Z,55.84
2023-04-29T19:28:37.224Z,56.10
2023-04-29T19:33:38.657Z,56.30
2023-04-29T19:38:40.344Z,56.41
2023-04-29T19:43:41.718Z,56.17
2023-04-29T19:48:43.111Z,56.27
2023-04-29T19:53:44.574Z,56.74
2023-04-29T19:58:46.149Z,56.72
2023-04-29T20:03:47.530Z,56.75
2023-04-29T20:08:48.904Z,56.68
2023-04-29T20:13:50.437Z,56.69
2023-04-29T20:18:51.822Z,56.77
2023-04-29T20:23:53.608Z,56.89
2023-04-29T20:28:54.984Z,56.74
2023-04-29T20:33:56.352Z,56.72
2023-04-29T20:38:57.712Z,56.62
2023-04-29T20:43:59.079Z,56.80
2023-04-29T20:49:00.959Z,56.99
2023-04-29T20:54:02.740Z,57.15
2023-04-29T20:59:04.261Z,56.92
2023-04-29T21:04:05.957Z,56.97
2023-04-29T21:09:08.874Z,56.95
2023-04-29T21:14:10.264Z,56.90
2023-04-29T21:19:11.676Z,56.52
2023-04-29T21:24:13.029Z,56.88
2023-04-29T21:29:14.408Z,56.77
2023-04-29T21:34:16.258Z,56.86
2023-04-29T21:39:17.686Z,56.87
2023-04-29T21:44:19.066Z,56.83
2023-04-29T21:49:20.935Z,56.98
2023-04-29T21:54:22.587Z,56.93
2023-04-29T21:59:24.103Z,57.01
2023-04-29T22:04:25.942Z,56.87
2023-04-29T22:09:27.321Z,57.23
2023-04-29T22:14:28.891Z,57.30
2023-04-29T22:19:30.323Z,57.58
2023-04-29T22:24:31.982Z,57.78
2023-04-29T22:29:33.380Z,58.20
2023-04-29T22:34:34.747Z,58.64
2023-04-29T22:39:36.065Z,58.76
2023-04-29T22:44:37.473Z,58.95
2023-04-29T22:49:38.865Z,58.75
2023-04-29T22:54:40.241Z,58.82
2023-04-29T22:59:41.554Z,59.08
2023-04-29T23:04:42.990Z,59.03
2023-04-29T23:09:44.339Z,59.13
2023-04-29T23:14:46.185Z,59.29
2023-04-29T23:19:47.506Z,59.36
2023-04-29T23:24:49.266Z,59.20
2023-04-29T23:29:51.048Z,59.30
2023-04-29T23:34:52.358Z,59.50
2023-04-29T23:39:54.015Z,59.46
2023-04-29T23:44:56.279Z,59.70
2023-04-29T23:49:57.572Z,59.70
2023-04-29T23:54:59.392Z,59.75
